Time;durP1;ratioP1;P1;durP2;ratioP2;P2;SDS_P1;SDS_P2;PMS_P1;PMS_P2;Temp;Humidity;BMP_temperature;BMP_pressure;BME280_temperature;BME280_humidity;BME280_pressure;Samples;Min_cycle;Max_cycle;Signal;HPM_P1;HPM_P2
2022/12/01 00:00:17;;;;;;;17.73;9.33;;;;;;;;;;5042022;28;20225;-31
2022/12/01 00:02:45;;;;;;;21.30;10.23;;;;;;;;;;5025786;28;20202;-26
2022/12/01 00:05:12;;;;;;;17.30;10.37;;;;;;;;;;5052392;28;20213;-27
2022/12/01 00:07:39;;;;;;;18.10;10.40;;;;;;;;;;5047854;28;20202;-31
2022/12/01 00:12:53;;;;;;;19.00;10.47;;;;;;;;;;5027071;28;20206;-27
2022/12/01 00:15:20;;;;;;;17.30;10.63;;;;;;;;;;5029214;28;20200;-29
2022/12/01 00:17:48;;;;;;;18.70;10.60;;;;;;;;;;5040194;28;20293;-25
2022/12/01 00:20:15;;;;;;;19.50;10.93;;;;;;;;;;5048964;28;20215;-27
2022/12/01 00:22:43;;;;;;;18.20;9.73;;;;;;;;;;5026724;28;20199;-30
2022/12/01 00:25:10;;;;;;;19.13;9.80;;;;;;;;;;5032300;28;20203;-28
2022/12/01 00:27:37;;;;;;;17.70;9.93;;;;;;;;;;5042457;28;20197;-28
2022/12/01 00:30:08;;;;;;;17.60;10.37;;;;;;;;;;5034727;28;20302;-29
2022/12/01 00:32:35;;;;;;;18.87;10.03;;;;;;;;;;5033696;28;20205;-31
2022/12/01 00:35:03;;;;;;;19.03;10.30;;;;;;;;;;5044908;28;20218;-30
2022/12/01 00:37:30;;;;;;;19.63;9.70;;;;;;;;;;5034079;28;20305;-31
2022/12/01 00:39:58;;;;;;;16.03;9.40;;;;;;;;;;5023465;28;20218;-27
2022/12/01 00:42:25;;;;;;;17.67;9.87;;;;;;;;;;5037534;28;20202;-27
2022/12/01 00:44:52;;;;;;;20.50;10.97;;;;;;;;;;5042903;28;20205;-28
2022/12/01 00:47:21;;;;;;;18.83;10.40;;;;;;;;;;5031231;28;20207;-29
2022/12/01 00:49:48;;;;;;;19.13;9.87;;;;;;;;;;5040508;28;20194;-30
2022/12/01 00:52:16;;;;;;;17.07;10.37;;;;;;;;;;5034940;28;20242;-29
2022/12/01 00:54:44;;;;;;;15.77;9.20;;;;;;;;;;5026538;28;20203;-31
2022/12/01 00:57:11;;;;;;;21.90;10.87;;;;;;;;;;5034444;28;20210;-28
2022/12/01 00:59:38;;;;;;;20.17;10.93;;;;;;;;;;5040668;28;20673;-26
2022/12/01 01:02:06;;;;;;;17.37;10.67;;;;;;;;;;5025598;28;20223;-29
2022/12/01 01:04:35;;;;;;;20.80;10.47;;;;;;;;;;5028562;28;20210;-33
2022/12/01 01:07:03;;;;;;;18.47;9.93;;;;;;;;;;5030326;28;20207;-29
2022/12/01 01:09:31;;;;;;;16.33;9.80;;;;;;;;;;5053494;28;20198;-31
2022/12/01 01:11:58;;;;;;;17.53;9.63;;;;;;;;;;5034187;28;20223;-29
2022/12/01 01:14:25;;;;;;;16.10;10.27;;;;;;;;;;5278427;22;20226;-28
2022/12/01 01:16:52;;;;;;;19.40;11.20;;;;;;;;;;5024021;28;20202;-27
2022/12/01 01:19:20;;;;;;;16.27;9.83;;;;;;;;;;5025225;28;20259;-27
2022/12/01 01:21:48;;;;;;;15.97;9.27;;;;;;;;;;5019459;28;20227;-27
2022/12/01 01:24:15;;;;;;;16.13;9.50;;;;;;;;;;4997527;28;20199;-28
2022/12/01 01:26:42;;;;;;;18.93;9.80;;;;;;;;;;5020330;28;20205;-27
2022/12/01 01:29:09;;;;;;;16.17;9.37;;;;;;;;;;5031233;28;20214;-27
2022/12/01 01:31:37;;;;;;;17.20;10.30;;;;;;;;;;5003394;28;20250;-27
2022/12/01 01:34:04;;;;;;;15.10;9.10;;;;;;;;;;5015228;28;20209;-27
2022/12/01 01:36:31;;;;;;;16.63;10.20;;;;;;;;;;5033376;28;20278;-26
2022/12/01 01:39:01;;;;;;;16.80;9.73;;;;;;;;;;5005175;28;20226;-28
2022/12/01 01:41:29;;;;;;;17.90;9.83;;;;;;;;;;5005881;28;20219;-28
2022/12/01 01:43:57;;;;;;;15.73;9.63;;;;;;;;;;5021801;28;20219;-27
2022/12/01 01:46:25;;;;;;;16.67;9.83;;;;;;;;;;5006536;28;20210;-29
2022/12/01 01:48:54;;;;;;;15.47;8.90;;;;;;;;;;5023910;28;20285;-26
2022/12/01 01:51:22;;;;;;;17.13;9.83;;;;;;;;;;5020054;28;20226;-28
2022/12/01 01:53:51;;;;;;;17.70;10.50;;;;;;;;;;5017534;28;20210;-28
2022/12/01 01:56:20;;;;;;;17.67;10.13;;;;;;;;;;5003597;28;20209;-27
2022/12/01 01:58:47;;;;;;;17.67;9.83;;;;;;;;;;5016266;28;20516;-27
2022/12/01 02:01:14;;;;;;;18.37;10.53;;;;;;;;;;4998444;28;20237;-26
2022/12/01 02:03:42;;;;;;;17.93;10.17;;;;;;;;;;5007895;28;20294;-28
2022/12/01 02:06:10;;;;;;;16.03;9.10;;;;;;;;;;5021116;28;20207;-28
2022/12/01 02:08:38;;;;;;;17.63;10.47;;;;;;;;;;5012460;28;20568;-26
2022/12/01 02:11:19;;;;;;;18.30;9.90;;;;;;;;;;5006838;28;20230;-25
2022/12/01 02:13:50;;;;;;;21.03;10.23;;;;;;;;;;5007747;28;20314;-26
2022/12/01 02:16:20;;;;;;;16.27;9.03;;;;;;;;;;5001999;28;20203;-28
2022/12/01 02:18:51;;;;;;;18.37;9.27;;;;;;;;;;5009749;28;20203;-28
2022/12/01 02:21:37;;;;;;;17.80;9.20;;;;;;;;;;5012968;28;20227;-25
2022/12/01 02:24:19;;;;;;;18.13;10.73;;;;;;;;;;5012778;28;20211;-27
2022/12/01 02:26:49;;;;;;;16.53;9.10;;;;;;;;;;5012190;28;20290;-30
2022/12/01 02:29:34;;;;;;;17.43;8.53;;;;;;;;;;5027881;28;20204;-27
2022/12/01 02:32:09;;;;;;;16.10;9.43;;;;;;;;;;5013561;28;20238;-26
2022/12/01 02:34:40;;;;;;;16.70;9.83;;;;;;;;;;5021045;28;20219;-29
2022/12/01 02:37:10;;;;;;;16.13;9.70;;;;;;;;;;5008928;28;20196;-25
2022/12/01 02:39:39;;;;;;;14.70;9.20;;;;;;;;;;5018269;28;20230;-25
2022/12/01 02:42:09;;;;;;;14.57;8.97;;;;;;;;;;5021111;28;20294;-27
2022/12/01 02:44:39;;;;;;;17.27;9.80;;;;;;;;;;5009347;28;20286;-29
2022/12/01 02:47:10;;;;;;;14.17;8.97;;;;;;;;;;5000301;28;20229;-28
2022/12/01 02:49:41;;;;;;;16.63;8.43;;;;;;;;;;5023786;28;20191;-28
2022/12/01 02:52:08;;;;;;;18.70;10.50;;;;;;;;;;5017241;28;20223;-27
2022/12/01 02:54:36;;;;;;;16.00;7.50;;;;;;;;;;5012270;28;20213;-26
2022/12/01 02:57:03;;;;;;;21.13;10.97;;;;;;;;;;5008427;28;20204;-26
2022/12/01 02:59:30;;;;;;;17.47;8.23;;;;;;;;;;5015902;28;20207;-26
2022/12/01 03:02:02;;;;;;;18.00;9.97;;;;;;;;;;5010297;28;20228;-26
2022/12/01 03:04:42;;;;;;;22.07;10.67;;;;;;;;;;5016131;28;20200;-27
2022/12/01 03:07:14;;;;;;;16.77;10.17;;;;;;;;;;5012961;28;20283;-28
2022/12/01 03:09:45;;;;;;;16.80;9.73;;;;;;;;;;5002709;28;20662;-27
2022/12/01 03:12:16;;;;;;;18.27;10.17;;;;;;;;;;5025680;28;20396;-26
2022/12/01 03:14:45;;;;;;;7.63;5.23;;;;;;;;;;5022417;28;20215;-26
2022/12/01 03:17:15;;;;;;;18.93;9.53;;;;;;;;;;5022882;28;20214;-25
2022/12/01 03:19:45;;;;;;;18.30;9.87;;;;;;;;;;5020698;28;20647;-28
2022/12/01 03:22:15;;;;;;;17.97;11.53;;;;;;;;;;5015738;28;20227;-26
2022/12/01 03:24:44;;;;;;;15.47;9.33;;;;;;;;;;5000028;28;20259;-27
2022/12/01 03:27:12;;;;;;;20.13;8.83;;;;;;;;;;5018200;28;20207;-26
2022/12/01 03:29:42;;;;;;;17.00;9.80;;;;;;;;;;5016862;28;20231;-28
2022/12/01 03:32:11;;;;;;;18.10;9.73;;;;;;;;;;5017277;28;20223;-25
2022/12/01 03:34:41;;;;;;;17.27;9.83;;;;;;;;;;5023748;28;20207;-28
2022/12/01 03:37:11;;;;;;;15.77;9.80;;;;;;;;;;5016375;28;20211;-27
2022/12/01 03:39:39;;;;;;;17.10;9.67;;;;;;;;;;5006855;28;20225;-27
2022/12/01 03:42:09;;;;;;;18.73;10.53;;;;;;;;;;5022633;28;20222;-25
2022/12/01 03:44:40;;;;;;;16.20;10.00;;;;;;;;;;5014133;28;20208;-25
2022/12/01 03:47:08;;;;;;;18.57;9.73;;;;;;;;;;5014678;28;20303;-26
2022/12/01 03:49:36;;;;;;;16.13;9.77;;;;;;;;;;5021293;28;20195;-26
2022/12/01 03:52:08;;;;;;;16.27;9.90;;;;;;;;;;5015060;28;20229;-29
2022/12/01 03:54:44;;;;;;;16.53;9.90;;;;;;;;;;5005174;28;20222;-28
2022/12/01 03:57:14;;;;;;;17.40;10.13;;;;;;;;;;5016660;28;20226;-25
2022/12/01 03:59:43;;;;;;;17.00;9.93;;;;;;;;;;5019917;28;20204;-26
2022/12/01 04:02:10;;;;;;;19.27;9.77;;;;;;;;;;5019300;28;20223;-28
2022/12/01 04:04:37;;;;;;;16.57;10.17;;;;;;;;;;5026515;28;20643;-27
2022/12/01 04:07:04;;;;;;;19.63;9.87;;;;;;;;;;5028932;28;20204;-25
2022/12/01 04:09:32;;;;;;;19.87;10.20;;;;;;;;;;5005282;28;20216;-26
2022/12/01 04:14:45;;;;;;;21.13;10.70;;;;;;;;;;5011795;28;20334;-26
2022/12/01 04:17:12;;;;;;;21.47;10.07;;;;;;;;;;5004373;28;20266;-27
2022/12/01 04:19:39;;;;;;;17.50;10.17;;;;;;;;;;5022167;28;20201;-28
2022/12/01 04:22:06;;;;;;;15.40;8.67;;;;;;;;;;5021351;28;20223;-27
2022/12/01 04:24:33;;;;;;;16.93;9.20;;;;;;;;;;5005793;28;20205;-26
2022/12/01 04:27:02;;;;;;;16.87;9.60;;;;;;;;;;5004544;28;20207;-27
2022/12/01 04:29:29;;;;;;;20.87;10.30;;;;;;;;;;5027394;28;20206;-27
2022/12/01 04:31:56;;;;;;;16.60;10.03;;;;;;;;;;5009273;28;20319;-27
2022/12/01 04:34:23;;;;;;;17.23;9.43;;;;;;;;;;5026174;28;20205;-26
2022/12/01 04:36:51;;;;;;;18.50;11.17;;;;;;;;;;5014402;28;20206;-28
2022/12/01 04:39:18;;;;;;;18.83;9.93;;;;;;;;;;5009051;28;20225;-29
2022/12/01 04:41:45;;;;;;;18.50;10.33;;;;;;;;;;5014538;28;20232;-28
2022/12/01 04:44:14;;;;;;;17.90;9.93;;;;;;;;;;5006030;28;20218;-28
2022/12/01 04:46:41;;;;;;;15.93;9.80;;;;;;;;;;5009545;28;20206;-27
2022/12/01 04:49:08;;;;;;;16.47;9.97;;;;;;;;;;5014118;28;20570;-26
2022/12/01 04:51:35;;;;;;;16.87;9.93;;;;;;;;;;5013919;28;20224;-27
2022/12/01 04:54:04;;;;;;;19.50;10.77;;;;;;;;;;5011269;28;20213;-28
2022/12/01 04:56:32;;;;;;;16.57;9.17;;;;;;;;;;5025211;28;20266;-30
2022/12/01 04:58:59;;;;;;;14.40;8.90;;;;;;;;;;5032623;28;20256;-26
2022/12/01 05:01:27;;;;;;;14.10;9.00;;;;;;;;;;5011944;28;20697;-26
2022/12/01 05:03:55;;;;;;;16.33;9.67;;;;;;;;;;5015267;28;20760;-29
2022/12/01 05:06:23;;;;;;;18.30;9.50;;;;;;;;;;5013967;28;20207;-26
2022/12/01 05:08:50;;;;;;;17.10;9.27;;;;;;;;;;5006944;28;20204;-26
2022/12/01 05:11:19;;;;;;;18.57;10.80;;;;;;;;;;5009227;28;20227;-25
2022/12/01 05:13:47;;;;;;;16.97;8.60;;;;;;;;;;5026753;28;20216;-28
2022/12/01 05:16:15;;;;;;;17.23;9.53;;;;;;;;;;5005702;28;20210;-30
2022/12/01 05:18:44;;;;;;;17.63;10.20;;;;;;;;;;5021744;28;20210;-27
2022/12/01 05:21:10;;;;;;;16.20;9.10;;;;;;;;;;5020513;28;20230;-27
2022/12/01 05:23:38;;;;;;;16.50;9.30;;;;;;;;;;4996112;28;20196;-28
2022/12/01 05:26:06;;;;;;;15.87;9.70;;;;;;;;;;5002683;28;20208;-27
2022/12/01 05:28:33;;;;;;;18.20;9.87;;;;;;;;;;5011718;28;20202;-28
2022/12/01 05:31:00;;;;;;;17.07;9.50;;;;;;;;;;5011890;28;20226;-26
2022/12/01 05:33:35;;;;;;;16.20;9.70;;;;;;;;;;5022986;28;20552;-28
2022/12/01 05:36:03;;;;;;;15.83;8.93;;;;;;;;;;5002819;28;20207;-29
2022/12/01 05:38:31;;;;;;;17.20;9.87;;;;;;;;;;5022907;28;20203;-26
2022/12/01 05:40:58;;;;;;;17.00;9.53;;;;;;;;;;5009703;28;20243;-30
2022/12/01 05:43:25;;;;;;;20.73;11.00;;;;;;;;;;5013949;28;20209;-26
2022/12/01 05:45:52;;;;;;;15.50;8.97;;;;;;;;;;5009709;28;20275;-25
2022/12/01 05:48:19;;;;;;;14.13;9.47;;;;;;;;;;5011886;28;20214;-27
2022/12/01 05:50:46;;;;;;;18.33;9.70;;;;;;;;;;5015282;28;20222;-25
2022/12/01 05:53:15;;;;;;;16.50;8.57;;;;;;;;;;5006388;28;20222;-27
2022/12/01 05:55:42;;;;;;;17.60;9.23;;;;;;;;;;5005581;28;20371;-28
2022/12/01 05:58:10;;;;;;;16.97;9.67;;;;;;;;;;5016428;28;20210;-26
2022/12/01 06:00:37;;;;;;;16.27;9.57;;;;;;;;;;5010152;28;20230;-25
2022/12/01 06:03:04;;;;;;;23.53;11.50;;;;;;;;;;5013949;28;20207;-26
2022/12/01 06:05:32;;;;;;;18.33;10.50;;;;;;;;;;5013097;28;20207;-29
2022/12/01 06:07:59;;;;;;;16.30;10.23;;;;;;;;;;5007631;28;20219;-26
2022/12/01 06:10:27;;;;;;;20.37;10.73;;;;;;;;;;5003868;28;20310;-26
2022/12/01 06:12:54;;;;;;;18.97;10.67;;;;;;;;;;5012912;28;20207;-27
2022/12/01 06:15:21;;;;;;;16.87;9.83;;;;;;;;;;5007182;28;20215;-26
2022/12/01 06:17:49;;;;;;;15.80;9.30;;;;;;;;;;5015681;28;20207;-28
2022/12/01 06:20:16;;;;;;;19.07;9.40;;;;;;;;;;5014578;28;20210;-27
2022/12/01 06:22:43;;;;;;;22.23;11.83;;;;;;;;;;5011386;28;20227;-27
2022/12/01 06:25:10;;;;;;;21.40;11.30;;;;;;;;;;5008832;28;20233;-27
2022/12/01 06:27:39;;;;;;;17.43;10.17;;;;;;;;;;5006169;28;20203;-28
2022/12/01 06:30:07;;;;;;;19.97;10.37;;;;;;;;;;5017940;28;20215;-27
2022/12/01 06:32:34;;;;;;;19.00;10.90;;;;;;;;;;5012706;28;20195;-25
2022/12/01 06:35:01;;;;;;;21.70;10.77;;;;;;;;;;5006258;28;20214;-27
2022/12/01 06:37:28;;;;;;;22.40;12.20;;;;;;;;;;5019424;28;20290;-26
2022/12/01 06:39:55;;;;;;;17.63;10.87;;;;;;;;;;5002565;28;20211;-28
2022/12/01 06:42:22;;;;;;;19.57;11.20;;;;;;;;;;5008311;28;20223;-28
2022/12/01 06:44:51;;;;;;;21.87;11.63;;;;;;;;;;5005503;28;20208;-28
2022/12/01 06:47:18;;;;;;;17.53;10.43;;;;;;;;;;5009331;28;20554;-25
2022/12/01 06:49:45;;;;;;;16.60;10.03;;;;;;;;;;5008368;28;20217;-28
2022/12/01 06:52:12;;;;;;;20.27;11.13;;;;;;;;;;5017182;28;20234;-28
2022/12/01 06:54:39;;;;;;;19.47;10.97;;;;;;;;;;5011604;28;20199;-27
2022/12/01 06:57:06;;;;;;;24.20;11.63;;;;;;;;;;5016713;28;20303;-29
2022/12/01 06:59:34;;;;;;;19.37;10.47;;;;;;;;;;5016998;28;20309;-27
2022/12/01 07:02:02;;;;;;;17.97;10.83;;;;;;;;;;5004633;28;20326;-29
2022/12/01 07:04:29;;;;;;;23.03;11.73;;;;;;;;;;5007981;28;20214;-26
2022/12/01 07:06:57;;;;;;;22.87;12.37;;;;;;;;;;5008917;28;20203;-26
2022/12/01 07:09:24;;;;;;;18.03;10.50;;;;;;;;;;5013187;28;20298;-28
2022/12/01 07:11:51;;;;;;;22.13;12.00;;;;;;;;;;5009391;28;20227;-28
2022/12/01 07:16:46;;;;;;;20.10;11.20;;;;;;;;;;5024997;28;20295;-28
2022/12/01 07:19:15;;;;;;;19.67;10.60;;;;;;;;;;5033397;28;20206;-27
2022/12/01 07:21:42;;;;;;;20.10;11.63;;;;;;;;;;5051353;28;20232;-28
2022/12/01 07:24:11;;;;;;;15.87;10.30;;;;;;;;;;5039892;28;20222;-26
2022/12/01 07:26:39;;;;;;;21.83;11.00;;;;;;;;;;5015917;28;20214;-30
2022/12/01 07:29:06;;;;;;;17.73;9.90;;;;;;;;;;5039486;28;20202;-29
2022/12/01 07:31:33;;;;;;;17.03;10.03;;;;;;;;;;5025111;28;20222;-27
2022/12/01 07:34:00;;;;;;;19.30;11.03;;;;;;;;;;5040433;28;20209;-28
2022/12/01 07:36:29;;;;;;;21.83;13.10;;;;;;;;;;5045204;28;20206;-27
2022/12/01 07:38:56;;;;;;;18.83;10.20;;;;;;;;;;5047750;28;20202;-27
2022/12/01 07:41:23;;;;;;;19.37;10.57;;;;;;;;;;5039961;28;20217;-27
2022/12/01 07:43:50;;;;;;;18.13;11.10;;;;;;;;;;5029639;28;20213;-29
2022/12/01 07:46:19;;;;;;;19.83;10.50;;;;;;;;;;5029783;28;20228;-27
2022/12/01 07:48:46;;;;;;;19.53;10.27;;;;;;;;;;5034927;28;20199;-28
2022/12/01 07:51:15;;;;;;;18.30;11.17;;;;;;;;;;5051050;28;20225;-29
2022/12/01 07:53:44;;;;;;;20.97;11.87;;;;;;;;;;5045011;28;20298;-29
2022/12/01 07:56:11;;;;;;;17.27;11.03;;;;;;;;;;5029453;28;20297;-27
2022/12/01 07:58:39;;;;;;;16.30;9.77;;;;;;;;;;5045637;28;20288;-29
2022/12/01 08:01:06;;;;;;;19.93;11.27;;;;;;;;;;5024747;28;20620;-27
2022/12/01 08:03:33;;;;;;;18.50;9.77;;;;;;;;;;5036596;28;20209;-27
2022/12/01 08:06:01;;;;;;;19.43;11.70;;;;;;;;;;5052262;28;20292;-30
2022/12/01 08:08:29;;;;;;;18.70;9.70;;;;;;;;;;5033167;28;20199;-29
2022/12/01 08:11:00;;;;;;;17.80;10.60;;;;;;;;;;5024916;28;20227;-30
2022/12/01 08:13:27;;;;;;;20.77;10.87;;;;;;;;;;5025131;28;20199;-27
2022/12/01 08:15:54;;;;;;;20.23;11.23;;;;;;;;;;5024333;28;20215;-27
2022/12/01 08:18:21;;;;;;;20.87;11.83;;;;;;;;;;5028558;28;20217;-26
2022/12/01 08:20:49;;;;;;;19.47;11.40;;;;;;;;;;5034015;28;20226;-25
2022/12/01 08:23:16;;;;;;;19.67;11.70;;;;;;;;;;5040287;28;20233;-28
2022/12/01 08:25:43;;;;;;;16.83;10.37;;;;;;;;;;5023763;28;20207;-25
2022/12/01 08:28:11;;;;;;;18.33;11.00;;;;;;;;;;5042245;28;20206;-26
2022/12/01 08:30:38;;;;;;;19.47;11.10;;;;;;;;;;5025791;28;20223;-29
2022/12/01 08:33:06;;;;;;;19.43;10.90;;;;;;;;;;5043444;28;20206;-28
2022/12/01 08:35:35;;;;;;;21.10;11.17;;;;;;;;;;5040453;28;20209;-29
2022/12/01 08:38:02;;;;;;;21.90;11.83;;;;;;;;;;5032680;28;20213;-29
2022/12/01 08:40:30;;;;;;;22.17;10.90;;;;;;;;;;5030748;28;20221;-28
2022/12/01 08:42:57;;;;;;;18.83;10.73;;;;;;;;;;5043543;28;20228;-28
2022/12/01 08:45:25;;;;;;;22.13;11.50;;;;;;;;;;5037465;28;20206;-28
2022/12/01 08:47:57;;;;;;;19.70;11.17;;;;;;;;;;5030969;28;20226;-28
2022/12/01 08:50:25;;;;;;;19.93;11.40;;;;;;;;;;5035373;28;20230;-27
2022/12/01 08:52:52;;;;;;;20.63;11.90;;;;;;;;;;5034625;28;20210;-27
2022/12/01 08:55:19;;;;;;;19.50;11.47;;;;;;;;;;5039747;28;20206;-26
2022/12/01 08:57:50;;;;;;;20.83;10.50;;;;;;;;;;5037235;28;20297;-28
2022/12/01 09:00:17;;;;;;;18.70;10.37;;;;;;;;;;5020484;28;20199;-29
2022/12/01 09:02:46;;;;;;;19.73;11.30;;;;;;;;;;5024945;28;20302;-28
2022/12/01 09:05:13;;;;;;;21.43;11.73;;;;;;;;;;5052439;28;20206;-27
2022/12/01 09:07:41;;;;;;;21.30;12.33;;;;;;;;;;5054719;28;20208;-28
2022/12/01 09:10:09;;;;;;;20.60;11.10;;;;;;;;;;5030898;28;20207;-28
2022/12/01 09:12:36;;;;;;;21.57;11.93;;;;;;;;;;5039514;28;20221;-28
2022/12/01 09:15:03;;;;;;;20.20;11.10;;;;;;;;;;5042448;28;20619;-29
2022/12/01 09:17:31;;;;;;;25.00;13.17;;;;;;;;;;5033409;28;20237;-26
2022/12/01 09:19:59;;;;;;;23.10;12.20;;;;;;;;;;5033012;28;20202;-28
2022/12/01 09:22:26;;;;;;;18.73;10.27;;;;;;;;;;5042651;28;20316;-29
2022/12/01 09:24:53;;;;;;;21.33;12.07;;;;;;;;;;5021454;28;20207;-28
2022/12/01 09:27:20;;;;;;;18.50;10.80;;;;;;;;;;5033976;28;20208;-26
2022/12/01 09:29:48;;;;;;;19.37;11.73;;;;;;;;;;5038398;28;20203;-26
2022/12/01 09:32:15;;;;;;;21.83;11.13;;;;;;;;;;5033275;28;20226;-28
2022/12/01 09:34:42;;;;;;;17.87;11.30;;;;;;;;;;5040439;28;20234;-26
2022/12/01 09:37:11;;;;;;;20.73;11.47;;;;;;;;;;5052496;28;20398;-27
2022/12/01 09:39:38;;;;;;;24.03;12.23;;;;;;;;;;5042816;28;20269;-28
2022/12/01 09:42:08;;;;;;;17.47;10.07;;;;;;;;;;5029941;28;20236;-27
2022/12/01 09:44:39;;;;;;;20.37;11.63;;;;;;;;;;5039705;28;20200;-26
2022/12/01 09:47:08;;;;;;;20.90;12.13;;;;;;;;;;5025737;28;20217;-26
2022/12/01 09:49:40;;;;;;;20.93;11.67;;;;;;;;;;5037836;28;20203;-28
2022/12/01 09:52:09;;;;;;;19.73;10.97;;;;;;;;;;5049610;28;20217;-27
2022/12/01 09:54:38;;;;;;;17.17;10.57;;;;;;;;;;5029207;28;20280;-29
2022/12/01 09:57:05;;;;;;;21.77;11.43;;;;;;;;;;5028400;28;20208;-27
2022/12/01 09:59:33;;;;;;;20.93;11.80;;;;;;;;;;5044745;28;20206;-29
2022/12/01 10:02:03;;;;;;;19.07;10.93;;;;;;;;;;5019361;28;20231;-27
2022/12/01 10:04:34;;;;;;;20.80;12.13;;;;;;;;;;5033101;28;20213;-27
2022/12/01 10:07:02;;;;;;;21.60;11.43;;;;;;;;;;5052152;28;20198;-28
2022/12/01 10:09:32;;;;;;;21.37;12.23;;;;;;;;;;5025403;28;20226;-29
2022/12/01 10:12:05;;;;;;;22.27;12.57;;;;;;;;;;5025746;28;20310;-28
2022/12/01 10:14:34;;;;;;;22.23;11.43;;;;;;;;;;5006522;28;20237;-27
2022/12/01 10:17:06;;;;;;;19.83;11.80;;;;;;;;;;5021367;28;20234;-28
2022/12/01 10:19:37;;;;;;;19.77;12.43;;;;;;;;;;5025279;28;20202;-27
2022/12/01 10:22:13;;;;;;;21.23;11.43;;;;;;;;;;5025578;28;20227;-26
2022/12/01 10:24:48;;;;;;;24.67;12.90;;;;;;;;;;5023627;28;20667;-27
2022/12/01 10:27:22;;;;;;;20.37;12.53;;;;;;;;;;5029241;28;20213;-28
2022/12/01 10:29:49;;;;;;;18.40;11.27;;;;;;;;;;5017496;28;20558;-29
2022/12/01 10:32:18;;;;;;;19.77;11.80;;;;;;;;;;5028155;28;20313;-27
2022/12/01 10:34:46;;;;;;;18.43;10.90;;;;;;;;;;5040348;28;20652;-26
2022/12/01 10:37:16;;;;;;;20.43;11.33;;;;;;;;;;5049004;28;20206;-28
2022/12/01 10:39:45;;;;;;;21.80;12.17;;;;;;;;;;5034481;28;20207;-28
2022/12/01 10:42:28;;;;;;;18.40;10.60;;;;;;;;;;5029164;28;20321;-27
2022/12/01 10:44:57;;;;;;;22.23;11.77;;;;;;;;;;5035875;28;20211;-26
2022/12/01 10:47:25;;;;;;;23.97;13.73;;;;;;;;;;5028093;28;20708;-26
2022/12/01 10:49:52;;;;;;;17.87;10.90;;;;;;;;;;5038221;28;20206;-30
2022/12/01 10:52:32;;;;;;;17.47;11.23;;;;;;;;;;5032065;28;20229;-25
2022/12/01 10:54:59;;;;;;;20.03;11.17;;;;;;;;;;5023988;28;20294;-26
2022/12/01 10:57:45;;;;;;;20.40;11.93;;;;;;;;;;5035308;28;20198;-27
2022/12/01 11:00:21;;;;;;;17.23;10.43;;;;;;;;;;5033289;28;20293;-27
2022/12/01 11:02:49;;;;;;;20.20;11.57;;;;;;;;;;5024833;28;20217;-27
2022/12/01 11:05:21;;;;;;;23.40;11.67;;;;;;;;;;5041540;28;20203;-26
2022/12/01 11:07:48;;;;;;;22.13;11.33;;;;;;;;;;5028480;28;20207;-29
2022/12/01 11:10:17;;;;;;;20.97;11.40;;;;;;;;;;5023831;28;20278;-27
2022/12/01 11:12:53;;;;;;;18.70;10.77;;;;;;;;;;5047718;28;20199;-26
2022/12/01 11:15:22;;;;;;;18.40;10.37;;;;;;;;;;5025913;28;20217;-28
2022/12/01 11:17:49;;;;;;;19.30;11.33;;;;;;;;;;5040367;28;20209;-28
2022/12/01 11:20:27;;;;;;;18.93;11.20;;;;;;;;;;5033970;28;20207;-26
2022/12/01 11:22:54;;;;;;;20.50;11.27;;;;;;;;;;5046814;28;20225;-28
2022/12/01 11:25:22;;;;;;;21.17;11.67;;;;;;;;;;5033087;28;20667;-27
2022/12/01 11:27:56;;;;;;;22.00;11.43;;;;;;;;;;5042162;28;20198;-28
2022/12/01 11:30:24;;;;;;;20.80;12.00;;;;;;;;;;5028330;28;20257;-27
2022/12/01 11:32:53;;;;;;;20.60;11.90;;;;;;;;;;5023656;28;20203;-27
2022/12/01 11:35:21;;;;;;;21.40;11.27;;;;;;;;;;5044773;28;20202;-26
2022/12/01 11:37:50;;;;;;;20.60;11.33;;;;;;;;;;5052718;28;20206;-28
2022/12/01 11:40:21;;;;;;;19.30;11.97;;;;;;;;;;5028923;28;20302;-26
2022/12/01 11:43:15;;;;;;;21.47;12.27;;;;;;;;;;5041398;28;20210;-29
2022/12/01 11:45:45;;;;;;;22.97;11.80;;;;;;;;;;5027242;28;20568;-28
2022/12/01 11:48:23;;;;;;;20.73;11.77;;;;;;;;;;5037758;28;20205;-27
2022/12/01 11:51:01;;;;;;;19.47;11.37;;;;;;;;;;5036446;28;20226;-27
2022/12/01 11:53:30;;;;;;;20.30;11.40;;;;;;;;;;5036589;28;20547;-28
2022/12/01 11:56:12;;;;;;;18.33;11.43;;;;;;;;;;5026968;28;20264;-29
2022/12/01 11:58:39;;;;;;;17.43;10.73;;;;;;;;;;5036517;28;20197;-26
2022/12/01 12:01:14;;;;;;;21.80;12.67;;;;;;;;;;5035048;28;20229;-27
2022/12/01 12:03:43;;;;;;;21.80;11.30;;;;;;;;;;5046778;28;20406;-26
2022/12/01 12:06:19;;;;;;;22.13;12.23;;;;;;;;;;5045865;28;20217;-28
2022/12/01 12:08:57;;;;;;;20.30;12.37;;;;;;;;;;5026169;28;20277;-26
2022/12/01 12:11:26;;;;;;;21.60;12.43;;;;;;;;;;5033626;28;20237;-26
2022/12/01 12:14:00;;;;;;;20.17;12.20;;;;;;;;;;5034252;28;20286;-29
2022/12/01 12:16:35;;;;;;;22.17;11.97;;;;;;;;;;5024980;28;20225;-25
2022/12/01 12:19:12;;;;;;;23.30;12.00;;;;;;;;;;5041240;28;20204;-25
2022/12/01 12:21:43;;;;;;;19.80;11.27;;;;;;;;;;5046098;28;20297;-28
2022/12/01 12:24:27;;;;;;;19.00;10.57;;;;;;;;;;5033200;28;20223;-28
2022/12/01 12:26:59;;;;;;;17.73;10.53;;;;;;;;;;5041538;28;20296;-26
2022/12/01 12:29:35;;;;;;;18.87;10.80;;;;;;;;;;5039924;28;20290;-27
2022/12/01 12:32:08;;;;;;;16.93;10.53;;;;;;;;;;5022780;28;20228;-29
2022/12/01 12:34:41;;;;;;;18.50;10.87;;;;;;;;;;5032428;28;20236;-28
2022/12/01 12:37:14;;;;;;;20.63;11.27;;;;;;;;;;5047661;28;20190;-29
2022/12/01 12:40:05;;;;;;;21.73;11.37;;;;;;;;;;5027706;28;20864;-26
2022/12/01 12:42:35;;;;;;;22.90;11.80;;;;;;;;;;5019343;28;20686;-26
2022/12/01 12:45:07;;;;;;;19.07;11.23;;;;;;;;;;5025190;28;20289;-26
2022/12/01 12:47:42;;;;;;;22.87;10.97;;;;;;;;;;5029405;28;20230;-29
2022/12/01 12:50:15;;;;;;;20.33;11.83;;;;;;;;;;5029722;28;20202;-27
2022/12/01 12:52:45;;;;;;;19.97;11.27;;;;;;;;;;5034063;28;20206;-28
2022/12/01 12:55:15;;;;;;;18.83;11.23;;;;;;;;;;5029417;28;20202;-27
2022/12/01 12:57:45;;;;;;;16.73;10.40;;;;;;;;;;5032384;28;20206;-29
2022/12/01 13:00:15;;;;;;;18.27;10.40;;;;;;;;;;5025524;28;20211;-28
2022/12/01 13:02:45;;;;;;;20.97;12.10;;;;;;;;;;5021796;28;20226;-31
2022/12/01 13:05:16;;;;;;;19.43;10.73;;;;;;;;;;5025149;28;20209;-27
2022/12/01 13:07:46;;;;;;;21.93;10.70;;;;;;;;;;5032241;28;20213;-26
2022/12/01 13:10:21;;;;;;;19.73;11.23;;;;;;;;;;5041696;28;20203;-26
2022/12/01 13:12:52;;;;;;;18.77;11.50;;;;;;;;;;5030976;28;20183;-28
2022/12/01 13:15:20;;;;;;;17.87;10.23;;;;;;;;;;5110142;22;20230;-26
2022/12/01 13:17:50;;;;;;;21.47;11.23;;;;;;;;;;5014236;28;20211;-27
2022/12/01 13:20:18;;;;;;;16.50;9.80;;;;;;;;;;5022903;28;20322;-28
2022/12/01 13:22:45;;;;;;;19.47;11.00;;;;;;;;;;5031244;28;20222;-25
2022/12/01 13:25:13;;;;;;;18.07;11.33;;;;;;;;;;5027276;28;20206;-27
2022/12/01 13:27:42;;;;;;;20.70;10.97;;;;;;;;;;5021778;28;20262;-24
2022/12/01 13:30:17;;;;;;;18.83;10.57;;;;;;;;;;5026123;28;20650;-26
2022/12/01 13:32:45;;;;;;;17.30;10.63;;;;;;;;;;5026129;28;20570;-28
2022/12/01 13:35:23;;;;;;;19.93;11.90;;;;;;;;;;5029024;28;20222;-23
2022/12/01 13:37:51;;;;;;;23.53;14.50;;;;;;;;;;5027012;28;20572;-26
2022/12/01 13:40:21;;;;;;;26.27;16.33;;;;;;;;;;5027798;28;20354;-25
2022/12/01 13:42:54;;;;;;;19.33;12.87;;;;;;;;;;5028111;28;20206;-28
2022/12/01 13:45:22;;;;;;;24.30;15.30;;;;;;;;;;5012012;28;20210;-28
2022/12/01 13:47:50;;;;;;;21.43;14.93;;;;;;;;;;5016203;28;20203;-25
2022/12/01 13:50:54;;;;;;;22.50;15.80;;;;;;;;;;5041652;28;20236;-25
2022/12/01 13:53:26;;;;;;;20.00;12.97;;;;;;;;;;5051739;28;20185;-24
2022/12/01 13:55:56;;;;;;;20.57;12.77;;;;;;;;;;5018748;28;20221;-26
2022/12/01 13:58:25;;;;;;;18.27;11.90;;;;;;;;;;5019369;28;20267;-25
2022/12/01 14:00:52;;;;;;;20.73;14.77;;;;;;;;;;5022057;28;20243;-28
2022/12/01 14:03:33;;;;;;;25.23;15.17;;;;;;;;;;5020672;28;20222;-26
2022/12/01 14:06:08;;;;;;;25.40;15.43;;;;;;;;;;5034287;28;20210;-25
2022/12/01 14:08:36;;;;;;;25.27;16.47;;;;;;;;;;5035857;28;20558;-24
2022/12/01 14:11:04;;;;;;;22.97;13.37;;;;;;;;;;5018180;28;20223;-26
2022/12/01 14:13:32;;;;;;;19.80;12.17;;;;;;;;;;5015109;28;20211;-24
2022/12/01 14:16:02;;;;;;;18.40;11.77;;;;;;;;;;5029144;28;20265;-27
2022/12/01 14:18:34;;;;;;;19.53;12.13;;;;;;;;;;5024571;28;20206;-25
2022/12/01 14:21:03;;;;;;;18.70;11.67;;;;;;;;;;5032454;28;20313;-27
2022/12/01 14:23:33;;;;;;;19.30;11.20;;;;;;;;;;5030175;28;20592;-25
2022/12/01 14:26:04;;;;;;;20.40;11.30;;;;;;;;;;5020797;28;20215;-27
2022/12/01 14:28:50;;;;;;;17.73;11.37;;;;;;;;;;5019630;28;20194;-28
2022/12/01 14:31:17;;;;;;;16.97;11.00;;;;;;;;;;5024784;28;20230;-25
2022/12/01 14:33:46;;;;;;;18.17;10.57;;;;;;;;;;5016972;28;20214;-25
2022/12/01 14:36:18;;;;;;;17.23;11.00;;;;;;;;;;5032252;28;20206;-27
2022/12/01 14:38:47;;;;;;;17.37;11.60;;;;;;;;;;5030800;28;20203;-24
2022/12/01 14:41:18;;;;;;;18.40;11.53;;;;;;;;;;5019835;28;20227;-29